sensor_id;sensor_type;location;lat;lon;timestamp;temperature;humidity
15036;DHT22;7615;48.574;13.474;2022-09-20T00:01:07;10.70;99.90
15036;DHT22;7615;48.574;13.474;2022-09-20T00:03:35;10.70;99.90
15036;DHT22;7615;48.574;13.474;2022-09-20T00:06:04;10.60;99.90
15036;DHT22;7615;48.574;13.474;2022-09-20T00:08:32;10.60;99.90
15036;DHT22;7615;48.574;13.474;2022-09-20T00:11:00;10.70;99.90
15036;DHT22;7615;48.574;13.474;2022-09-20T00:13:28;10.70;99.90
15036;DHT22;7615;48.574;13.474;2022-09-20T00:15:56;10.70;99.90
15036;DHT22;7615;48.574;13.474;2022-09-20T00:18:26;10.80;99.90
15036;DHT22;7615;48.574;13.474;2022-09-20T00:20:54;10.80;99.90
15036;DHT22;7615;48.574;13.474;2022-09-20T00:23:21;10.80;99.90
15036;DHT22;7615;48.574;13.474;2022-09-20T00:26:00;10.80;99.90
15036;DHT22;7615;48.574;13.474;2022-09-20T00:28:28;10.70;99.90
15036;DHT22;7615;48.574;13.474;2022-09-20T00:30:56;10.70;99.90
15036;DHT22;7615;48.574;13.474;2022-09-20T00:33:27;10.70;99.90
15036;DHT22;7615;48.574;13.474;2022-09-20T00:36:15;10.60;99.90
15036;DHT22;7615;48.574;13.474;2022-09-20T00:38:42;10.70;99.90
15036;DHT22;7615;48.574;13.474;2022-09-20T00:41:09;10.60;99.90
15036;DHT22;7615;48.574;13.474;2022-09-20T00:43:40;10.50;99.90
15036;DHT22;7615;48.574;13.474;2022-09-20T00:46:18;11.40;99.90
15036;DHT22;7615;48.574;13.474;2022-09-20T00:48:50;10.50;99.90
15036;DHT22;7615;48.574;13.474;2022-09-20T00:51:23;10.50;99.90
15036;DHT22;7615;48.574;13.474;2022-09-20T00:53:53;10.50;99.90
15036;DHT22;7615;48.574;13.474;2022-09-20T00:56:25;10.50;99.90
15036;DHT22;7615;48.574;13.474;2022-09-20T00:59:00;10.50;99.90
15036;DHT22;7615;48.574;13.474;2022-09-20T01:01:30;10.60;99.90
15036;DHT22;7615;48.574;13.474;2022-09-20T01:03:59;10.60;99.90
15036;DHT22;7615;48.574;13.474;2022-09-20T01:06:28;10.10;99.90
15036;DHT22;7615;48.574;13.474;2022-09-20T01:08:57;10.50;99.90
15036;DHT22;7615;48.574;13.474;2022-09-20T01:11:28;10.50;99.90
15036;DHT22;7615;48.574;13.474;2022-09-20T01:13:55;9.70;99.90
15036;DHT22;7615;48.574;13.474;2022-09-20T01:16:24;10.40;99.90
15036;DHT22;7615;48.574;13.474;2022-09-20T01:18:52;10.40;99.90
15036;DHT22;7615;48.574;13.474;2022-09-20T01:21:24;10.40;99.90
15036;DHT22;7615;48.574;13.474;2022-09-20T01:24:01;10.30;99.90
15036;DHT22;7615;48.574;13.474;2022-09-20T01:27:01;10.30;99.90
15036;DHT22;7615;48.574;13.474;2022-09-20T01:29:51;10.20;99.90
15036;DHT22;7615;48.574;13.474;2022-09-20T01:32:29;10.20;99.90
15036;DHT22;7615;48.574;13.474;2022-09-20T01:35:00;11.00;99.90
15036;DHT22;7615;48.574;13.474;2022-09-20T01:37:33;10.10;99.90
15036;DHT22;7615;48.574;13.474;2022-09-20T01:40:13;10.00;99.90
15036;DHT22;7615;48.574;13.474;2022-09-20T01:42:48;10.10;99.90
15036;DHT22;7615;48.574;13.474;2022-09-20T01:45:26;10.10;99.90
15036;DHT22;7615;48.574;13.474;2022-09-20T01:48:02;10.00;99.90
15036;DHT22;7615;48.574;13.474;2022-09-20T01:50:38;10.00;99.90
15036;DHT22;7615;48.574;13.474;2022-09-20T01:59:49;10.20;99.90
15036;DHT22;7615;48.574;13.474;2022-09-20T02:05:46;10.10;99.90
15036;DHT22;7615;48.574;13.474;2022-09-20T02:11:16;10.10;99.90
15036;DHT22;7615;48.574;13.474;2022-09-20T02:14:12;10.10;99.90
15036;DHT22;7615;48.574;13.474;2022-09-20T02:16:47;10.10;99.90
15036;DHT22;7615;48.574;13.474;2022-09-20T02:22:17;10.20;99.90
15036;DHT22;7615;48.574;13.474;2022-09-20T02:24:54;10.30;99.90
15036;DHT22;7615;48.574;13.474;2022-09-20T02:27:28;10.30;99.90
15036;DHT22;7615;48.574;13.474;2022-09-20T02:30:07;10.30;99.90
15036;DHT22;7615;48.574;13.474;2022-09-20T02:32:53;10.30;99.90
15036;DHT22;7615;48.574;13.474;2022-09-20T02:35:38;10.20;99.90
15036;DHT22;7615;48.574;13.474;2022-09-20T02:43:57;10.30;99.90
15036;DHT22;7615;48.574;13.474;2022-09-20T02:46:30;10.30;99.90
15036;DHT22;7615;48.574;13.474;2022-09-20T02:49:09;10.30;99.90
15036;DHT22;7615;48.574;13.474;2022-09-20T02:51:42;10.30;99.90
15036;DHT22;7615;48.574;13.474;2022-09-20T02:54:29;10.30;99.90
15036;DHT22;7615;48.574;13.474;2022-09-20T02:57:01;10.20;99.90
15036;DHT22;7615;48.574;13.474;2022-09-20T02:59:37;10.30;99.90
15036;DHT22;7615;48.574;13.474;2022-09-20T03:02:14;10.30;99.90
15036;DHT22;7615;48.574;13.474;2022-09-20T03:04:56;10.30;99.90
15036;DHT22;7615;48.574;13.474;2022-09-20T03:07:34;10.40;99.90
15036;DHT22;7615;48.574;13.474;2022-09-20T03:10:15;9.70;99.90
15036;DHT22;7615;48.574;13.474;2022-09-20T03:12:56;10.40;99.90
15036;DHT22;7615;48.574;13.474;2022-09-20T03:15:39;10.50;99.90
15036;DHT22;7615;48.574;13.474;2022-09-20T03:18:15;10.50;99.90
15036;DHT22;7615;48.574;13.474;2022-09-20T03:20:51;10.50;99.90
15036;DHT22;7615;48.574;13.474;2022-09-20T03:23:36;10.50;99.90
15036;DHT22;7615;48.574;13.474;2022-09-20T03:26:15;10.50;99.90
15036;DHT22;7615;48.574;13.474;2022-09-20T03:28:59;10.50;99.90
15036;DHT22;7615;48.574;13.474;2022-09-20T03:31:42;10.40;99.90
15036;DHT22;7615;48.574;13.474;2022-09-20T03:34:23;10.50;99.90
15036;DHT22;7615;48.574;13.474;2022-09-20T03:37:05;11.10;99.90
15036;DHT22;7615;48.574;13.474;2022-09-20T03:39:59;10.40;99.90
15036;DHT22;7615;48.574;13.474;2022-09-20T03:42:30;10.40;99.90
15036;DHT22;7615;48.574;13.474;2022-09-20T03:48:48;10.30;99.90
15036;DHT22;7615;48.574;13.474;2022-09-20T03:51:25;10.30;99.90
15036;DHT22;7615;48.574;13.474;2022-09-20T04:00:26;10.30;99.90
15036;DHT22;7615;48.574;13.474;2022-09-20T04:03:17;10.30;99.90
15036;DHT22;7615;48.574;13.474;2022-09-20T04:06:12;10.30;99.90
15036;DHT22;7615;48.574;13.474;2022-09-20T04:09:07;10.30;99.90
15036;DHT22;7615;48.574;13.474;2022-09-20T04:11:40;10.40;99.90
15036;DHT22;7615;48.574;13.474;2022-09-20T04:14:16;10.30;99.90
15036;DHT22;7615;48.574;13.474;2022-09-20T04:16:52;10.30;99.90
15036;DHT22;7615;48.574;13.474;2022-09-20T04:19:25;10.30;99.90
15036;DHT22;7615;48.574;13.474;2022-09-20T04:21:55;10.30;99.90
15036;DHT22;7615;48.574;13.474;2022-09-20T04:24:34;10.40;99.90
15036;DHT22;7615;48.574;13.474;2022-09-20T04:27:09;10.40;99.90
15036;DHT22;7615;48.574;13.474;2022-09-20T04:29:43;10.40;99.90
15036;DHT22;7615;48.574;13.474;2022-09-20T04:32:18;10.50;99.90
15036;DHT22;7615;48.574;13.474;2022-09-20T04:34:52;10.50;99.90
15036;DHT22;7615;48.574;13.474;2022-09-20T04:37:39;10.40;99.90
15036;DHT22;7615;48.574;13.474;2022-09-20T04:40:18;10.40;99.90
15036;DHT22;7615;48.574;13.474;2022-09-20T04:46:38;10.40;99.90
15036;DHT22;7615;48.574;13.474;2022-09-20T04:52:45;10.50;99.90
15036;DHT22;7615;48.574;13.474;2022-09-20T04:55:48;10.50;99.90
15036;DHT22;7615;48.574;13.474;2022-09-20T05:02:10;10.40;99.90
15036;DHT22;7615;48.574;13.474;2022-09-20T05:05:25;10.40;99.90
15036;DHT22;7615;48.574;13.474;2022-09-20T05:11:41;10.40;99.90
15036;DHT22;7615;48.574;13.474;2022-09-20T05:14:34;10.50;99.90
15036;DHT22;7615;48.574;13.474;2022-09-20T05:17:14;10.40;99.90
15036;DHT22;7615;48.574;13.474;2022-09-20T05:19:54;10.50;99.90
15036;DHT22;7615;48.574;13.474;2022-09-20T05:22:50;10.50;99.90
15036;DHT22;7615;48.574;13.474;2022-09-20T05:25:40;9.60;99.90
15036;DHT22;7615;48.574;13.474;2022-09-20T05:28:15;10.60;99.90
15036;DHT22;7615;48.574;13.474;2022-09-20T05:30:48;10.60;99.90
15036;DHT22;7615;48.574;13.474;2022-09-20T05:33:21;10.60;99.90
15036;DHT22;7615;48.574;13.474;2022-09-20T05:35:57;10.50;99.90
15036;DHT22;7615;48.574;13.474;2022-09-20T05:38:39;10.60;99.90
15036;DHT22;7615;48.574;13.474;2022-09-20T05:41:15;10.70;99.90
15036;DHT22;7615;48.574;13.474;2022-09-20T05:43:53;10.70;99.90
15036;DHT22;7615;48.574;13.474;2022-09-20T05:46:33;10.70;99.90
15036;DHT22;7615;48.574;13.474;2022-09-20T05:49:10;10.70;99.90
15036;DHT22;7615;48.574;13.474;2022-09-20T05:51:58;10.70;99.90
15036;DHT22;7615;48.574;13.474;2022-09-20T05:54:54;10.80;99.90
15036;DHT22;7615;48.574;13.474;2022-09-20T05:57:34;10.80;99.90
15036;DHT22;7615;48.574;13.474;2022-09-20T06:00:08;10.90;99.90
15036;DHT22;7615;48.574;13.474;2022-09-20T06:02:43;10.90;99.90
15036;DHT22;7615;48.574;13.474;2022-09-20T06:05:23;10.90;99.90
15036;DHT22;7615;48.574;13.474;2022-09-20T06:11:18;10.90;99.90
15036;DHT22;7615;48.574;13.474;2022-09-20T06:14:00;11.00;99.90
15036;DHT22;7615;48.574;13.474;2022-09-20T06:16:40;11.00;99.90
15036;DHT22;7615;48.574;13.474;2022-09-20T06:19:16;11.00;99.90
15036;DHT22;7615;48.574;13.474;2022-09-20T06:21:50;11.00;99.90
15036;DHT22;7615;48.574;13.474;2022-09-20T06:24:34;11.00;99.90
15036;DHT22;7615;48.574;13.474;2022-09-20T06:27:09;10.90;99.90
15036;DHT22;7615;48.574;13.474;2022-09-20T06:29:39;10.80;99.90
15036;DHT22;7615;48.574;13.474;2022-09-20T06:32:08;10.70;99.90
15036;DHT22;7615;48.574;13.474;2022-09-20T06:34:36;10.70;99.90
15036;DHT22;7615;48.574;13.474;2022-09-20T06:37:16;10.60;99.90
15036;DHT22;7615;48.574;13.474;2022-09-20T06:40:13;10.50;99.90
15036;DHT22;7615;48.574;13.474;2022-09-20T06:43:01;10.40;99.90
15036;DHT22;7615;48.574;13.474;2022-09-20T06:45:29;10.30;99.90
15036;DHT22;7615;48.574;13.474;2022-09-20T06:47:57;10.30;99.90
15036;DHT22;7615;48.574;13.474;2022-09-20T06:50:26;10.30;99.90
15036;DHT22;7615;48.574;13.474;2022-09-20T06:52:54;10.30;99.90
15036;DHT22;7615;48.574;13.474;2022-09-20T06:55:25;10.40;99.90
15036;DHT22;7615;48.574;13.474;2022-09-20T06:57:55;10.40;99.90
15036;DHT22;7615;48.574;13.474;2022-09-20T07:00:24;9.70;99.90
15036;DHT22;7615;48.574;13.474;2022-09-20T07:02:52;10.30;99.90
15036;DHT22;7615;48.574;13.474;2022-09-20T07:05:21;10.40;99.90
15036;DHT22;7615;48.574;13.474;2022-09-20T07:07:49;10.70;99.90
15036;DHT22;7615;48.574;13.474;2022-09-20T07:10:16;10.80;99.90
15036;DHT22;7615;48.574;13.474;2022-09-20T07:12:43;10.90;99.90
15036;DHT22;7615;48.574;13.474;2022-09-20T07:15:11;10.90;99.90
15036;DHT22;7615;48.574;13.474;2022-09-20T07:17:43;10.90;99.90
15036;DHT22;7615;48.574;13.474;2022-09-20T07:20:10;10.80;99.90
15036;DHT22;7615;48.574;13.474;2022-09-20T07:22:38;10.90;99.90
15036;DHT22;7615;48.574;13.474;2022-09-20T07:25:07;10.90;99.90
15036;DHT22;7615;48.574;13.474;2022-09-20T07:27:34;11.00;99.90
15036;DHT22;7615;48.574;13.474;2022-09-20T07:30:02;11.10;99.90
15036;DHT22;7615;48.574;13.474;2022-09-20T07:32:30;11.10;99.90
15036;DHT22;7615;48.574;13.474;2022-09-20T07:34:59;11.20;99.90
15036;DHT22;7615;48.574;13.474;2022-09-20T07:37:26;11.20;99.90
15036;DHT22;7615;48.574;13.474;2022-09-20T07:39:54;11.10;99.90
15036;DHT22;7615;48.574;13.474;2022-09-20T07:42:21;11.00;99.90
15036;DHT22;7615;48.574;13.474;2022-09-20T07:44:48;11.10;99.90
15036;DHT22;7615;48.574;13.474;2022-09-20T07:47:15;11.10;99.90
15036;DHT22;7615;48.574;13.474;2022-09-20T07:49:43;11.10;99.90
15036;DHT22;7615;48.574;13.474;2022-09-20T07:52:12;11.10;99.90
15036;DHT22;7615;48.574;13.474;2022-09-20T07:54:40;11.20;99.90
15036;DHT22;7615;48.574;13.474;2022-09-20T07:57:10;11.30;99.90
15036;DHT22;7615;48.574;13.474;2022-09-20T07:59:37;11.40;99.90
15036;DHT22;7615;48.574;13.474;2022-09-20T08:02:05;11.60;99.90
15036;DHT22;7615;48.574;13.474;2022-09-20T08:04:33;11.80;99.90
15036;DHT22;7615;48.574;13.474;2022-09-20T08:07:00;11.40;99.90
15036;DHT22;7615;48.574;13.474;2022-09-20T08:09:28;12.10;99.90
15036;DHT22;7615;48.574;13.474;2022-09-20T08:11:56;12.20;99.90
15036;DHT22;7615;48.574;13.474;2022-09-20T08:14:23;12.20;99.90
15036;DHT22;7615;48.574;13.474;2022-09-20T08:16:53;12.20;99.90
15036;DHT22;7615;48.574;13.474;2022-09-20T08:19:23;12.30;99.90
15036;DHT22;7615;48.574;13.474;2022-09-20T08:21:56;12.30;99.90
15036;DHT22;7615;48.574;13.474;2022-09-20T08:24:28;12.40;99.90
15036;DHT22;7615;48.574;13.474;2022-09-20T08:26:56;12.50;99.90
15036;DHT22;7615;48.574;13.474;2022-09-20T08:29:37;12.50;99.90
15036;DHT22;7615;48.574;13.474;2022-09-20T08:32:05;12.60;99.90
15036;DHT22;7615;48.574;13.474;2022-09-20T08:34:32;12.50;99.90
15036;DHT22;7615;48.574;13.474;2022-09-20T08:37:00;12.50;99.90
15036;DHT22;7615;48.574;13.474;2022-09-20T08:39:29;12.70;99.90
15036;DHT22;7615;48.574;13.474;2022-09-20T08:42:00;12.70;99.90
15036;DHT22;7615;48.574;13.474;2022-09-20T08:44:37;12.60;99.90
15036;DHT22;7615;48.574;13.474;2022-09-20T08:47:17;12.40;99.90
15036;DHT22;7615;48.574;13.474;2022-09-20T08:49:45;12.10;99.90
15036;DHT22;7615;48.574;13.474;2022-09-20T08:52:29;12.00;99.90
15036;DHT22;7615;48.574;13.474;2022-09-20T08:55:00;11.90;99.90
15036;DHT22;7615;48.574;13.474;2022-09-20T08:57:31;11.90;99.90
15036;DHT22;7615;48.574;13.474;2022-09-20T09:00:02;12.10;99.90
15036;DHT22;7615;48.574;13.474;2022-09-20T09:02:31;12.50;99.90
15036;DHT22;7615;48.574;13.474;2022-09-20T09:04:59;12.70;99.90
15036;DHT22;7615;48.574;13.474;2022-09-20T09:07:28;12.80;99.90
15036;DHT22;7615;48.574;13.474;2022-09-20T09:09:59;12.90;99.90
15036;DHT22;7615;48.574;13.474;2022-09-20T09:12:29;13.20;99.90
15036;DHT22;7615;48.574;13.474;2022-09-20T09:15:03;13.40;99.90
15036;DHT22;7615;48.574;13.474;2022-09-20T09:17:32;13.30;99.90
15036;DHT22;7615;48.574;13.474;2022-09-20T09:20:15;13.20;99.90
15036;DHT22;7615;48.574;13.474;2022-09-20T09:22:47;12.90;99.90
15036;DHT22;7615;48.574;13.474;2022-09-20T09:25:26;12.70;99.90
15036;DHT22;7615;48.574;13.474;2022-09-20T09:27:58;12.50;99.90
15036;DHT22;7615;48.574;13.474;2022-09-20T09:30:28;12.30;99.90
15036;DHT22;7615;48.574;13.474;2022-09-20T09:33:22;12.30;99.90
15036;DHT22;7615;48.574;13.474;2022-09-20T09:35:54;12.60;99.90
15036;DHT22;7615;48.574;13.474;2022-09-20T09:38:24;12.80;99.90
15036;DHT22;7615;48.574;13.474;2022-09-20T09:40:55;13.10;99.90
15036;DHT22;7615;48.574;13.474;2022-09-20T09:43:24;13.20;99.90
15036;DHT22;7615;48.574;13.474;2022-09-20T09:45:56;13.10;99.90
15036;DHT22;7615;48.574;13.474;2022-09-20T09:48:42;12.90;99.90
15036;DHT22;7615;48.574;13.474;2022-09-20T09:51:16;12.80;99.90
15036;DHT22;7615;48.574;13.474;2022-09-20T09:53:45;12.70;99.90
15036;DHT22;7615;48.574;13.474;2022-09-20T09:56:34;12.70;99.90
15036;DHT22;7615;48.574;13.474;2022-09-20T09:59:26;12.50;99.90
15036;DHT22;7615;48.574;13.474;2022-09-20T10:02:01;12.30;99.90
15036;DHT22;7615;48.574;13.474;2022-09-20T10:04:42;12.20;99.90
15036;DHT22;7615;48.574;13.474;2022-09-20T10:07:17;12.10;99.90
15036;DHT22;7615;48.574;13.474;2022-09-20T10:10:03;12.40;99.90
15036;DHT22;7615;48.574;13.474;2022-09-20T10:12:44;12.40;99.90
15036;DHT22;7615;48.574;13.474;2022-09-20T10:15:29;12.60;99.90
15036;DHT22;7615;48.574;13.474;2022-09-20T10:18:13;12.70;99.90
15036;DHT22;7615;48.574;13.474;2022-09-20T10:21:03;12.70;99.90
15036;DHT22;7615;48.574;13.474;2022-09-20T10:26:48;13.30;99.90
15036;DHT22;7615;48.574;13.474;2022-09-20T10:29:26;13.50;99.90
15036;DHT22;7615;48.574;13.474;2022-09-20T10:32:04;13.70;99.90
15036;DHT22;7615;48.574;13.474;2022-09-20T10:37:45;13.80;99.90
15036;DHT22;7615;48.574;13.474;2022-09-20T10:40:26;14.00;99.90
15036;DHT22;7615;48.574;13.474;2022-09-20T10:43:28;14.10;99.90
15036;DHT22;7615;48.574;13.474;2022-09-20T10:46:08;14.40;99.90
15036;DHT22;7615;48.574;13.474;2022-09-20T10:48:41;14.60;99.90
15036;DHT22;7615;48.574;13.474;2022-09-20T10:51:20;14.90;99.90
15036;DHT22;7615;48.574;13.474;2022-09-20T10:53:57;13.20;99.90
15036;DHT22;7615;48.574;13.474;2022-09-20T10:56:34;12.50;99.90
15036;DHT22;7615;48.574;13.474;2022-09-20T10:59:27;12.20;99.90
15036;DHT22;7615;48.574;13.474;2022-09-20T11:02:19;12.10;99.90
15036;DHT22;7615;48.574;13.474;2022-09-20T11:05:15;11.40;99.90
15036;DHT22;7615;48.574;13.474;2022-09-20T11:07:53;11.60;99.90
15036;DHT22;7615;48.574;13.474;2022-09-20T11:10:35;13.00;99.90
15036;DHT22;7615;48.574;13.474;2022-09-20T11:13:21;13.40;99.90
15036;DHT22;7615;48.574;13.474;2022-09-20T11:15:55;13.60;99.90
15036;DHT22;7615;48.574;13.474;2022-09-20T11:18:31;13.70;99.90
15036;DHT22;7615;48.574;13.474;2022-09-20T11:21:07;13.80;99.90
15036;DHT22;7615;48.574;13.474;2022-09-20T11:23:44;14.10;99.90
15036;DHT22;7615;48.574;13.474;2022-09-20T11:26:20;14.30;99.90
15036;DHT22;7615;48.574;13.474;2022-09-20T11:28:51;14.40;99.90
15036;DHT22;7615;48.574;13.474;2022-09-20T11:31:25;14.30;99.90
15036;DHT22;7615;48.574;13.474;2022-09-20T11:34:00;14.20;99.90
15036;DHT22;7615;48.574;13.474;2022-09-20T11:36:35;14.00;99.90
15036;DHT22;7615;48.574;13.474;2022-09-20T11:39:14;14.30;99.90
15036;DHT22;7615;48.574;13.474;2022-09-20T11:41:42;14.30;99.90
15036;DHT22;7615;48.574;13.474;2022-09-20T11:44:12;14.40;99.90
15036;DHT22;7615;48.574;13.474;2022-09-20T11:46:46;14.60;99.90
15036;DHT22;7615;48.574;13.474;2022-09-20T11:49:22;15.00;99.90
15036;DHT22;7615;48.574;13.474;2022-09-20T11:52:13;15.10;99.90
15036;DHT22;7615;48.574;13.474;2022-09-20T11:55:04;14.60;99.90
15036;DHT22;7615;48.574;13.474;2022-09-20T11:57:35;14.00;99.90
15036;DHT22;7615;48.574;13.474;2022-09-20T12:00:04;13.70;99.90
15036;DHT22;7615;48.574;13.474;2022-09-20T12:02:42;13.30;99.90
15036;DHT22;7615;48.574;13.474;2022-09-20T12:05:24;12.60;99.90
15036;DHT22;7615;48.574;13.474;2022-09-20T12:07:53;12.50;99.90
15036;DHT22;7615;48.574;13.474;2022-09-20T12:10:24;12.40;99.90
15036;DHT22;7615;48.574;13.474;2022-09-20T12:12:55;12.20;99.90
15036;DHT22;7615;48.574;13.474;2022-09-20T12:15:27;12.10;99.90
15036;DHT22;7615;48.574;13.474;2022-09-20T12:18:13;12.00;99.90
15036;DHT22;7615;48.574;13.474;2022-09-20T12:20:59;12.00;99.90
15036;DHT22;7615;48.574;13.474;2022-09-20T12:26:51;12.20;99.90
15036;DHT22;7615;48.574;13.474;2022-09-20T12:30:02;12.00;99.90
15036;DHT22;7615;48.574;13.474;2022-09-20T12:32:54;11.90;99.90
15036;DHT22;7615;48.574;13.474;2022-09-20T12:36:16;12.00;99.90
15036;DHT22;7615;48.574;13.474;2022-09-20T12:38:59;11.90;99.90
15036;DHT22;7615;48.574;13.474;2022-09-20T12:41:44;11.80;99.90
15036;DHT22;7615;48.574;13.474;2022-09-20T12:44:30;11.80;99.90
15036;DHT22;7615;48.574;13.474;2022-09-20T12:47:26;12.00;99.90
15036;DHT22;7615;48.574;13.474;2022-09-20T12:50:14;12.20;99.90
15036;DHT22;7615;48.574;13.474;2022-09-20T12:53:25;11.70;99.90
15036;DHT22;7615;48.574;13.474;2022-09-20T12:56:06;12.20;99.90
15036;DHT22;7615;48.574;13.474;2022-09-20T12:58:51;12.90;99.90
15036;DHT22;7615;48.574;13.474;2022-09-20T13:01:38;13.20;99.90
15036;DHT22;7615;48.574;13.474;2022-09-20T13:18:44;14.10;99.90
15036;DHT22;7615;48.574;13.474;2022-09-20T13:27:42;14.40;99.90
15036;DHT22;7615;48.574;13.474;2022-09-20T13:28:08;14.50;99.90
15036;DHT22;7615;48.574;13.474;2022-09-20T13:30:46;14.10;99.90
15036;DHT22;7615;48.574;13.474;2022-09-20T13:33:27;13.60;99.90
15036;DHT22;7615;48.574;13.474;2022-09-20T13:36:03;13.30;99.90
15036;DHT22;7615;48.574;13.474;2022-09-20T13:38:32;13.50;99.90
15036;DHT22;7615;48.574;13.474;2022-09-20T13:41:06;13.10;99.90
15036;DHT22;7615;48.574;13.474;2022-09-20T13:43:43;13.20;99.90
15036;DHT22;7615;48.574;13.474;2022-09-20T13:46:15;13.60;99.90
15036;DHT22;7615;48.574;13.474;2022-09-20T13:48:45;13.90;99.90
15036;DHT22;7615;48.574;13.474;2022-09-20T13:51:31;14.10;99.90
15036;DHT22;7615;48.574;13.474;2022-09-20T13:54:19;14.30;99.90
15036;DHT22;7615;48.574;13.474;2022-09-20T13:56:48;14.60;99.90
15036;DHT22;7615;48.574;13.474;2022-09-20T13:59:20;14.00;99.90
15036;DHT22;7615;48.574;13.474;2022-09-20T14:01:50;14.20;99.90
15036;DHT22;7615;48.574;13.474;2022-09-20T14:04:22;14.00;99.90
15036;DHT22;7615;48.574;13.474;2022-09-20T14:06:56;14.00;99.90
15036;DHT22;7615;48.574;13.474;2022-09-20T14:09:28;14.00;99.90
15036;DHT22;7615;48.574;13.474;2022-09-20T14:12:00;14.00;99.90
15036;DHT22;7615;48.574;13.474;2022-09-20T14:14:30;14.10;99.90
15036;DHT22;7615;48.574;13.474;2022-09-20T14:17:05;14.10;99.90
15036;DHT22;7615;48.574;13.474;2022-09-20T14:19:37;14.10;99.90
15036;DHT22;7615;48.574;13.474;2022-09-20T14:22:17;14.20;99.90
15036;DHT22;7615;48.574;13.474;2022-09-20T14:24:57;14.20;99.90
15036;DHT22;7615;48.574;13.474;2022-09-20T14:27:25;14.10;99.90
15036;DHT22;7615;48.574;13.474;2022-09-20T14:29:56;14.10;99.90
15036;DHT22;7615;48.574;13.474;2022-09-20T14:35:14;13.70;99.90
15036;DHT22;7615;48.574;13.474;2022-09-20T14:37:45;13.60;99.90
15036;DHT22;7615;48.574;13.474;2022-09-20T14:40:21;13.60;99.90
15036;DHT22;7615;48.574;13.474;2022-09-20T14:42:52;13.50;99.90
15036;DHT22;7615;48.574;13.474;2022-09-20T14:45:23;13.40;99.90
15036;DHT22;7615;48.574;13.474;2022-09-20T14:47:59;13.30;99.90
15036;DHT22;7615;48.574;13.474;2022-09-20T14:50:29;12.60;99.90
15036;DHT22;7615;48.574;13.474;2022-09-20T14:53:35;13.10;99.90
15036;DHT22;7615;48.574;13.474;2022-09-20T14:56:08;13.10;99.90
15036;DHT22;7615;48.574;13.474;2022-09-20T14:59:01;13.00;99.90
15036;DHT22;7615;48.574;13.474;2022-09-20T15:01:30;12.90;99.90
15036;DHT22;7615;48.574;13.474;2022-09-20T15:04:04;13.80;99.90
15036;DHT22;7615;48.574;13.474;2022-09-20T15:06:34;12.80;99.90
15036;DHT22;7615;48.574;13.474;2022-09-20T15:09:03;12.80;99.90
15036;DHT22;7615;48.574;13.474;2022-09-20T15:11:32;12.90;99.90
15036;DHT22;7615;48.574;13.474;2022-09-20T15:14:00;12.90;99.90
15036;DHT22;7615;48.574;13.474;2022-09-20T15:16:28;12.90;99.90
15036;DHT22;7615;48.574;13.474;2022-09-20T15:18:59;12.90;99.90
15036;DHT22;7615;48.574;13.474;2022-09-20T15:21:27;12.90;99.90
15036;DHT22;7615;48.574;13.474;2022-09-20T15:23:55;12.90;99.90
15036;DHT22;7615;48.574;13.474;2022-09-20T15:26:24;12.90;99.90
15036;DHT22;7615;48.574;13.474;2022-09-20T15:28:51;12.90;99.90
15036;DHT22;7615;48.574;13.474;2022-09-20T15:31:18;12.90;99.90
15036;DHT22;7615;48.574;13.474;2022-09-20T15:33:45;12.80;99.90
15036;DHT22;7615;48.574;13.474;2022-09-20T15:36:13;12.40;99.90
15036;DHT22;7615;48.574;13.474;2022-09-20T15:38:40;12.90;99.90
15036;DHT22;7615;48.574;13.474;2022-09-20T15:41:10;12.90;99.90
15036;DHT22;7615;48.574;13.474;2022-09-20T15:43:39;12.90;99.90
15036;DHT22;7615;48.574;13.474;2022-09-20T15:46:17;12.80;99.90
15036;DHT22;7615;48.574;13.474;2022-09-20T15:48:46;12.80;99.90
15036;DHT22;7615;48.574;13.474;2022-09-20T15:51:14;12.70;99.90
15036;DHT22;7615;48.574;13.474;2022-09-20T15:53:44;12.60;99.90
15036;DHT22;7615;48.574;13.474;2022-09-20T15:56:15;12.60;99.90
15036;DHT22;7615;48.574;13.474;2022-09-20T15:58:46;12.50;99.90
15036;DHT22;7615;48.574;13.474;2022-09-20T16:01:14;12.40;99.90
15036;DHT22;7615;48.574;13.474;2022-09-20T16:03:43;12.40;99.90
15036;DHT22;7615;48.574;13.474;2022-09-20T16:06:11;12.40;99.90
15036;DHT22;7615;48.574;13.474;2022-09-20T16:08:40;12.50;99.90
15036;DHT22;7615;48.574;13.474;2022-09-20T16:11:11;12.50;99.90
15036;DHT22;7615;48.574;13.474;2022-09-20T16:13:39;12.50;99.90
15036;DHT22;7615;48.574;13.474;2022-09-20T16:16:11;12.50;99.90
15036;DHT22;7615;48.574;13.474;2022-09-20T16:18:40;12.50;99.90
15036;DHT22;7615;48.574;13.474;2022-09-20T16:21:25;12.50;99.90
15036;DHT22;7615;48.574;13.474;2022-09-20T16:23:53;12.50;99.90
15036;DHT22;7615;48.574;13.474;2022-09-20T16:26:22;12.60;99.90
15036;DHT22;7615;48.574;13.474;2022-09-20T16:28:50;12.50;99.90
15036;DHT22;7615;48.574;13.474;2022-09-20T16:31:30;12.50;99.90
15036;DHT22;7615;48.574;13.474;2022-09-20T16:34:00;12.40;99.90
15036;DHT22;7615;48.574;13.474;2022-09-20T16:36:30;12.40;99.90
15036;DHT22;7615;48.574;13.474;2022-09-20T16:38:59;12.40;99.90
15036;DHT22;7615;48.574;13.474;2022-09-20T16:41:27;12.40;99.90
15036;DHT22;7615;48.574;13.474;2022-09-20T16:43:56;12.30;99.90
15036;DHT22;7615;48.574;13.474;2022-09-20T16:46:25;12.30;99.90
15036;DHT22;7615;48.574;13.474;2022-09-20T16:48:55;11.40;99.90
15036;DHT22;7615;48.574;13.474;2022-09-20T16:51:28;12.30;99.90
15036;DHT22;7615;48.574;13.474;2022-09-20T16:53:56;12.20;99.90
15036;DHT22;7615;48.574;13.474;2022-09-20T16:56:25;12.20;99.90
15036;DHT22;7615;48.574;13.474;2022-09-20T16:58:53;12.10;99.90
15036;DHT22;7615;48.574;13.474;2022-09-20T17:01:21;12.10;99.90
15036;DHT22;7615;48.574;13.474;2022-09-20T17:03:48;12.20;99.90
15036;DHT22;7615;48.574;13.474;2022-09-20T17:06:17;12.00;99.90
15036;DHT22;7615;48.574;13.474;2022-09-20T17:08:52;12.00;99.90
15036;DHT22;7615;48.574;13.474;2022-09-20T17:11:24;12.00;99.90
15036;DHT22;7615;48.574;13.474;2022-09-20T17:13:52;12.00;99.90
15036;DHT22;7615;48.574;13.474;2022-09-20T17:16:25;12.00;99.90
15036;DHT22;7615;48.574;13.474;2022-09-20T17:18:53;11.90;99.90
15036;DHT22;7615;48.574;13.474;2022-09-20T17:21:22;11.90;99.90
15036;DHT22;7615;48.574;13.474;2022-09-20T17:23:52;11.80;99.90
15036;DHT22;7615;48.574;13.474;2022-09-20T17:26:21;11.80;99.90
15036;DHT22;7615;48.574;13.474;2022-09-20T17:28:50;11.80;99.90
15036;DHT22;7615;48.574;13.474;2022-09-20T17:31:19;11.70;99.90
15036;DHT22;7615;48.574;13.474;2022-09-20T17:33:47;11.60;99.90
15036;DHT22;7615;48.574;13.474;2022-09-20T17:36:16;11.60;99.90
15036;DHT22;7615;48.574;13.474;2022-09-20T17:38:51;11.60;99.90
15036;DHT22;7615;48.574;13.474;2022-09-20T17:41:19;11.50;99.90